Time;durP1;ratioP1;P1;durP2;ratioP2;P2;SDS_P1;SDS_P2;PMS_P1;PMS_P2;Temp;Humidity;BMP_temperature;BMP_pressure;BME280_temperature;BME280_humidity;BME280_pressure;Samples;Min_cycle;Max_cycle;Signal;HPM_P1;HPM_P2
2021/08/01 00:01:45;;;;;;;;;;;17.60;96.40;;;17.67;86.11;99884.84;5051491;28;19921;-87
2021/08/01 00:04:15;;;;;;;;;;;17.60;96.40;;;17.65;86.13;99887.88;5034621;28;19924;-88
2021/08/01 00:06:43;;;;;;;;;;;17.70;96.50;;;17.68;86.38;99889.28;5051799;28;19920;-87
2021/08/01 00:09:16;;;;;;;;;;;17.60;96.50;;;17.64;86.28;99886.19;5052345;28;20343;-88
2021/08/01 00:11:43;;;;;;;;;;;17.70;96.70;;;17.68;86.32;99889.28;5052240;28;19970;-87
2021/08/01 00:14:18;;;;;;;;;;;17.70;96.80;;;17.65;86.49;99885.13;5052260;28;19928;-87
2021/08/01 00:16:45;;;;;;;;;;;17.70;96.70;;;17.68;86.48;99881.03;5051352;28;19977;-87
2021/08/01 00:19:12;;;;;;;;;;;17.70;96.60;;;17.69;86.58;99874.47;5052129;28;19936;-88
2021/08/01 00:21:39;;;;;;;;;;;17.70;96.70;;;17.67;86.79;99873.84;5052162;28;19921;-87
2021/08/01 00:24:06;;;;;;;;;;;17.70;96.70;;;17.67;86.71;99873.84;5052179;28;20015;-89
2021/08/01 00:26:33;;;;;;;;;;;17.70;96.60;;;17.64;86.72;99868.84;5051807;28;19924;-87
2021/08/01 00:29:00;;;;;;;;;;;17.70;96.60;;;17.64;86.66;99866.09;5052086;28;20023;-88
2021/08/01 00:31:30;;;;;;;;;;;17.70;96.60;;;17.64;86.64;99860.59;5052023;28;19927;-87
2021/08/01 00:33:59;;;;;;;;;;;17.70;96.70;;;17.62;86.42;99871.03;5051923;28;19921;-87
2021/08/01 00:36:26;;;;;;;;;;;17.60;96.30;;;17.58;86.44;99865.19;5051174;28;19925;-87
2021/08/01 00:38:53;;;;;;;;;;;17.60;96.20;;;17.56;86.42;99859.09;5051797;28;20004;-87
2021/08/01 00:41:21;;;;;;;;;;;17.60;96.30;;;17.57;86.37;99861.59;5051748;28;19928;-88
2021/08/01 00:43:48;;;;;;;;;;;17.60;96.10;;;17.56;86.10;99861.84;5051780;28;20023;-87
2021/08/01 00:46:17;;;;;;;;;;;17.50;96.10;;;17.55;85.86;99861.00;5032995;28;19928;-88
2021/08/01 00:48:45;;;;;;;;;;;17.50;96.20;;;17.56;85.59;99856.34;5033632;28;19924;-88
2021/08/01 00:51:30;;;;;;;;;;;17.40;96.10;;;17.53;85.59;99846.63;5033949;28;20446;-88
2021/08/01 00:53:57;;;;;;;;;;;17.40;96.10;;;17.52;85.50;99847.72;5051808;28;19970;-87
2021/08/01 00:56:25;;;;;;;;;;;17.40;96.10;;;17.49;85.27;99845.47;5032789;28;19932;-87
2021/08/01 00:58:53;;;;;;;;;;;17.40;95.90;;;17.50;85.10;99841.66;5033315;28;20016;-88
2021/08/01 01:01:32;;;;;;;;;;;17.40;95.80;;;17.48;84.85;99843.00;5033463;28;20015;-87
2021/08/01 01:04:07;;;;;;;;;;;17.30;95.90;;;17.48;84.92;99848.50;5051498;28;19924;-87
2021/08/01 01:06:41;;;;;;;;;;;17.30;96.00;;;17.47;84.76;99844.06;5050585;28;19964;-88
2021/08/01 01:09:14;;;;;;;;;;;17.20;95.90;;;17.46;84.71;99847.88;5030182;28;19933;-88
2021/08/01 01:12:19;;;;;;;;;;;17.20;96.20;;;17.43;84.76;99846.47;5032902;28;19931;-88
2021/08/01 01:14:49;;;;;;;;;;;17.20;96.20;;;17.41;84.87;99853.31;5033248;28;20341;-87
2021/08/01 01:17:20;;;;;;;;;;;17.20;96.20;;;17.40;84.75;99846.94;5032484;28;19924;-87
2021/08/01 01:20:25;;;;;;;;;;;17.20;96.40;;;17.41;84.92;99851.38;5033340;28;19920;-88
2021/08/01 01:23:04;;;;;;;;;;;17.20;96.30;;;17.39;85.42;99846.13;5002361;28;19924;-88
2021/08/01 01:25:59;;;;;;;;;;;17.20;96.50;;;17.37;85.48;99840.03;5050697;28;19931;-87
2021/08/01 01:28:34;;;;;;;;;;;17.20;96.70;;;17.38;85.41;99844.47;5033086;28;20304;-86
2021/08/01 01:31:10;;;;;;;;;;;17.20;96.70;;;17.37;85.64;99842.78;5032989;28;19924;-87
2021/08/01 01:33:44;;;;;;;;;;;17.30;97.00;;;17.37;85.83;99836.44;5050986;28;19920;-87
2021/08/01 01:36:18;;;;;;;;;;;17.30;97.00;;;17.35;85.87;99842.19;5032063;28;19955;-88
2021/08/01 01:38:47;;;;;;;;;;;17.30;97.10;;;17.35;86.16;99833.94;5032730;28;19944;-87
2021/08/01 01:41:36;;;;;;;;;;;17.30;97.20;;;17.32;86.80;99828.09;5009622;28;19925;-88
2021/08/01 01:44:09;;;;;;;;;;;17.30;97.50;;;17.30;87.27;99835.75;5032913;28;20388;-88
2021/08/01 01:46:38;;;;;;;;;;;17.30;97.60;;;17.29;87.73;99834.09;5031783;28;19974;-88
2021/08/01 01:49:06;;;;;;;;;;;17.30;97.70;;;17.29;87.83;99839.59;5050478;28;19929;-87
2021/08/01 01:51:37;;;;;;;;;;;17.40;97.80;;;17.30;87.77;99833.84;5032607;28;19925;-88
2021/08/01 01:54:07;;;;;;;;;;;17.40;97.80;;;17.33;88.00;99835.28;5032570;28;19924;-88
2021/08/01 01:56:36;;;;;;;;;;;17.40;98.00;;;17.30;88.51;99836.59;5031511;28;19925;-87
2021/08/01 01:59:06;;;;;;;;;;;17.40;98.10;;;17.30;88.48;99830.25;5032221;28;19955;-88
2021/08/01 02:01:35;;;;;;;;;;;17.40;98.10;;;17.31;88.57;99837.44;5050329;28;19939;-86
2021/08/01 02:04:03;;;;;;;;;;;17.50;98.30;;;17.30;88.68;99830.25;5032223;28;19970;-87
2021/08/01 02:06:50;;;;;;;;;;;17.40;98.10;;;17.28;88.99;99843.41;5049548;28;19932;-87
2021/08/01 02:12:32;;;;;;;;;;;17.40;98.30;;;17.32;88.74;99839.09;4639560;26;20011;-94
2021/08/01 02:15:44;;;;;;;;;;;17.50;98.20;;;17.31;88.98;99842.94;5030552;28;20381;-94
2021/08/01 02:18:30;;;;;;;;;;;;;;;;;;;;;
2021/08/01 02:21:12;;;;;;;;;;;17.50;98.20;;;17.30;88.78;99841.25;5030852;28;19921;-94
2021/08/01 02:23:45;;;;;;;;;;;17.50;98.10;;;17.31;89.08;99842.94;5029072;28;19974;-93
2021/08/01 02:27:20;;;;;;;;;;;17.50;98.20;;;17.29;89.16;99845.09;5013513;28;19943;-95
2021/08/01 02:30:30;;;;;;;;;;;17.40;98.00;;;17.28;89.02;99847.00;5031479;28;19927;-96
2021/08/01 02:33:41;;;;;;;;;;;;;;;;;;;;;
2021/08/01 02:36:48;;;;;;;;;;;17.40;98.00;;;17.31;88.93;99838.28;5013381;28;19979;-91
2021/08/01 02:39:48;;;;;;;;;;;17.40;98.00;;;17.31;88.67;99829.19;5012533;28;19947;-93
2021/08/01 02:42:26;;;;;;;;;;;17.40;98.00;;;17.31;88.64;99837.44;5030634;28;19952;-92
2021/08/01 02:49:40;;;;;;;;;;;;;;;;;;;;;
2021/08/01 03:03:04;;;;;;;;;;;17.30;98.10;;;17.25;88.27;99832.91;4228698;22;19924;-92
2021/08/01 03:06:32;;;;;;;;;;;17.30;98.30;;;17.28;88.10;99844.25;5077396;28;19947;-92
2021/08/01 03:09:20;;;;;;;;;;;17.30;98.20;;;17.26;88.60;99840.09;5053875;28;19920;-91
2021/08/01 03:12:03;;;;;;;;;;;17.30;98.30;;;17.25;88.51;99838.41;5033675;28;19924;-92
2021/08/01 03:14:49;;;;;;;;;;;17.30;98.40;;;17.22;88.66;99836.16;5033567;28;20030;-93
2021/08/01 03:17:38;;;;;;;;;;;;;;;;;;;;;
2021/08/01 03:20:31;;;;;;;;;;;17.30;98.60;;;17.19;88.69;99824.56;5051892;28;20008;-92
2021/08/01 03:26:56;;;;;;;;;;;17.30;98.60;;;17.19;88.62;99846.56;4929948;29;20014;-91
2021/08/01 03:29:26;;;;;;;;;;;17.30;98.40;;;17.20;88.67;99848.22;4989770;28;20448;-93
2021/08/01 03:31:54;;;;;;;;;;;17.30;98.30;;;17.20;88.39;99841.91;4972966;28;19949;-93
2021/08/01 03:34:23;;;;;;;;;;;17.20;98.20;;;17.18;88.40;99839.38;4972865;28;20275;-91
2021/08/01 03:36:54;;;;;;;;;;;17.20;98.10;;;17.18;88.36;99842.13;4991603;28;20337;-91
2021/08/01 03:39:26;;;;;;;;;;;17.20;98.10;;;17.18;88.13;99850.38;4993180;28;19925;-93
2021/08/01 03:42:23;;;;;;;;;;;17.20;98.00;;;17.17;88.10;99853.38;4991760;28;19980;-92
2021/08/01 03:44:51;;;;;;;;;;;17.20;97.90;;;17.13;87.98;99853.03;4976492;28;19921;-92
2021/08/01 03:47:23;;;;;;;;;;;17.20;98.00;;;17.14;88.14;99849.22;4976497;28;19929;-92
2021/08/01 03:49:53;;;;;;;;;;;17.20;98.00;;;17.15;88.23;99850.91;4992898;28;20298;-93
2021/08/01 03:52:26;;;;;;;;;;;17.20;98.10;;;17.16;88.15;99852.53;4976949;28;19933;-93
2021/08/01 03:55:18;;;;;;;;;;;17.20;98.20;;;17.14;88.37;99859.38;4976985;28;19932;-92
2021/08/01 03:57:48;;;;;;;;;;;17.20;98.30;;;17.13;88.58;99847.53;4976125;28;19953;-92
2021/08/01 04:00:18;;;;;;;;;;;17.30;98.40;;;17.15;88.57;99850.91;4992520;28;20153;-93
2021/08/01 04:02:50;;;;;;;;;;;17.30;98.50;;;17.13;88.58;99847.53;4992539;28;19963;-92
2021/08/01 04:05:22;;;;;;;;;;;17.30;98.60;;;17.16;88.77;99848.97;5033874;28;19925;-92
2021/08/01 04:07:52;;;;;;;;;;;17.30;98.60;;;17.15;88.78;99848.16;5035443;28;20411;-93
2021/08/01 04:10:23;;;;;;;;;;;17.30;98.60;;;17.15;88.89;99850.91;5036671;28;19920;-92
2021/08/01 04:12:51;;;;;;;;;;;17.30;98.50;;;17.13;89.04;99857.69;5037105;28;19974;-93
2021/08/01 04:15:18;;;;;;;;;;;17.30;98.50;;;17.14;89.22;99854.72;5054304;28;19940;-92
2021/08/01 04:17:45;;;;;;;;;;;17.30;98.60;;;17.16;89.17;99849.78;5053134;28;19947;-92
2021/08/01 04:20:15;;;;;;;;;;;17.30;98.60;;;17.16;89.04;99846.22;5036590;28;20284;-92
2021/08/01 04:22:43;;;;;;;;;;;17.30;98.60;;;17.15;89.29;99844.53;5035460;28;19924;-91
2021/08/01 04:25:11;;;;;;;;;;;17.30;98.50;;;17.15;89.28;99856.41;5053154;28;19925;-92
2021/08/01 04:27:42;;;;;;;;;;;17.40;98.60;;;17.16;89.46;99858.03;5051344;28;19924;-93
2021/08/01 04:30:11;;;;;;;;;;;17.40;98.50;;;17.16;89.52;99847.03;5035747;28;19964;-92
2021/08/01 04:32:41;;;;;;;;;;;17.40;98.50;;;17.15;89.77;99839.91;5035562;28;19932;-90
2021/08/01 04:35:10;;;;;;;;;;;17.40;98.50;;;17.12;89.75;99843.13;5035425;28;19925;-92
2021/08/01 04:37:40;;;;;;;;;;;17.40;98.40;;;17.14;89.78;99832.72;5034914;28;19931;-92
2021/08/01 04:40:11;;;;;;;;;;;17.50;98.20;;;17.17;89.73;99836.88;5052039;28;19920;-92
2021/08/01 04:42:43;;;;;;;;;;;17.50;98.10;;;17.17;89.98;99848.72;5053347;28;19925;-92
2021/08/01 04:45:11;;;;;;;;;;;17.50;97.90;;;17.21;89.85;99849.09;5035265;28;19928;-91
2021/08/01 04:47:40;;;;;;;;;;;17.60;97.90;;;17.17;89.84;99847.88;5034657;28;20361;-92
2021/08/01 04:50:09;;;;;;;;;;;17.60;97.80;;;17.18;90.18;99844.88;5053080;28;19982;-92
2021/08/01 04:52:40;;;;;;;;;;;17.60;97.70;;;17.23;89.94;99848.81;5035774;28;20381;-92
2021/08/01 04:55:09;;;;;;;;;;;17.60;97.70;;;17.20;90.09;99850.97;5051574;28;19925;-91
2021/08/01 04:57:36;;;;;;;;;;;17.60;97.70;;;17.20;90.19;99841.91;5034921;28;19960;-91
2021/08/01 05:00:06;;;;;;;;;;;17.70;97.60;;;17.22;90.35;99844.41;5034732;28;19932;-92
2021/08/01 05:02:34;;;;;;;;;;;17.70;97.60;;;17.24;90.33;99845.00;5044833;28;19931;-92
2021/08/01 05:05:02;;;;;;;;;;;17.70;97.50;;;17.24;90.29;99837.56;5054595;28;19924;-93
2021/08/01 05:07:29;;;;;;;;;;;17.80;97.30;;;17.24;90.27;99826.56;5053999;28;19924;-93
2021/08/01 05:09:56;;;;;;;;;;;17.80;97.00;;;17.27;90.28;99830.72;5054593;28;19924;-92
2021/08/01 05:12:24;;;;;;;;;;;17.90;97.00;;;17.25;90.42;99827.41;5071213;28;19921;-92
2021/08/01 05:14:51;;;;;;;;;;;18.00;96.30;;;17.24;90.83;99840.31;5072530;28;19930;-92
2021/08/01 05:17:19;;;;;;;;;;;18.10;95.90;;;17.24;90.56;99837.56;5070548;28;20114;-92
2021/08/01 05:19:47;;;;;;;;;;;18.20;95.50;;;17.23;90.64;99843.31;5070965;28;19921;-92
2021/08/01 05:22:15;;;;;;;;;;;18.20;95.30;;;17.23;90.83;99846.06;5054292;28;19927;-92
2021/08/01 05:24:45;;;;;;;;;;;18.20;95.20;;;17.27;90.67;99841.75;5070829;28;20557;-92
2021/08/01 05:27:12;;;;;;;;;;;18.30;95.10;;;17.27;91.23;99841.75;5054090;28;19920;-93
2021/08/01 05:29:44;;;;;;;;;;;18.40;95.00;;;17.27;91.93;99853.59;5070915;28;19974;-92
2021/08/01 05:32:13;;;;;;;;;;;18.50;94.50;;;17.29;92.00;99839.59;5071134;28;19924;-93
2021/08/01 05:34:54;;;;;;;;;;;18.70;94.10;;;17.35;92.01;99846.88;5072975;28;20011;-92
2021/08/01 05:37:22;;;;;;;;;;;18.90;93.60;;;17.39;92.16;99839.78;5053993;28;19971;-92
2021/08/01 05:39:52;;;;;;;;;;;19.00;92.70;;;17.41;92.55;99848.63;5054829;28;19920;-92
2021/08/01 05:42:21;;;;;;;;;;;19.10;93.00;;;17.44;92.07;99841.78;5054734;28;20028;-93
2021/08/01 05:45:23;;;;;;;;;;;19.00;92.90;;;17.41;92.08;99853.31;5054728;28;19924;-93
2021/08/01 05:48:11;;;;;;;;;;;;;;;;;;;;;
2021/08/01 05:50:40;;;;;;;;;;;18.70;93.90;;;17.42;91.77;99839.31;5053929;28;20352;-92
2021/08/01 05:53:14;;;;;;;;;;;18.50;94.60;;;17.36;91.66;99843.88;5072203;28;19924;-92
2021/08/01 05:55:45;;;;;;;;;;;18.40;94.80;;;17.41;91.41;99848.63;5053935;28;19997;-92
2021/08/01 05:58:17;;;;;;;;;;;18.40;94.60;;;17.41;91.13;99845.03;5052351;28;19977;-93
2021/08/01 06:00:44;;;;;;;;;;;18.30;95.10;;;17.39;91.28;99848.03;5053254;28;19930;-93
2021/08/01 06:03:12;;;;;;;;;;;18.30;95.30;;;17.44;91.42;99848.16;5070679;28;19925;-92
2021/08/01 06:05:50;;;;;;;;;;;;;;;;;;;;;
2021/08/01 06:08:22;;;;;;;;;;;18.50;94.70;;;17.50;91.41;99854.56;5053730;28;20019;-92
2021/08/01 06:10:50;;;;;;;;;;;18.50;94.70;;;17.50;91.55;99849.06;5054162;28;19930;-92
2021/08/01 06:13:44;;;;;;;;;;;18.70;94.40;;;17.50;91.32;99857.34;5053800;28;19924;-93
2021/08/01 06:16:19;;;;;;;;;;;18.90;93.10;;;17.48;91.39;99852.06;5070991;28;20027;-93
2021/08/01 06:18:49;;;;;;;;;;;19.10;92.00;;;17.52;91.78;99847.72;5053914;28;20648;-92
2021/08/01 06:21:19;;;;;;;;;;;19.30;91.60;;;17.58;91.91;99849.50;5053521;28;19943;-92
2021/08/01 06:23:50;;;;;;;;;;;19.70;90.20;;;17.62;91.61;99849.84;5053406;28;19924;-93
2021/08/01 06:26:19;;;;;;;;;;;20.00;88.80;;;17.64;92.78;99847.66;5052277;28;19924;-92
2021/08/01 06:28:46;;;;;;;;;;;20.10;89.20;;;17.68;92.09;99837.00;5053367;28;19924;-93
2021/08/01 06:31:13;;;;;;;;;;;20.40;87.00;;;17.71;92.33;99839.28;5053158;28;19924;-91
2021/08/01 06:33:41;;;;;;;;;;;20.30;87.80;;;17.74;91.35;99836.00;5070501;28;19928;-91
2021/08/01 06:36:11;;;;;;;;;;;20.30;86.70;;;17.83;92.37;99845.53;5070119;28;19924;-92
2021/08/01 06:38:46;;;;;;;;;;;20.60;86.80;;;17.84;91.16;99840.84;5053186;28;20401;-92
2021/08/01 06:41:14;;;;;;;;;;;20.60;85.30;;;17.91;92.22;99839.63;5075527;28;19943;-93
2021/08/01 06:43:50;;;;;;;;;;;20.70;86.40;;;17.99;92.30;99841.13;5071612;28;19943;-94
2021/08/01 06:46:30;;;;;;;;;;;20.60;86.70;;;18.04;92.99;99846.72;5052973;28;19930;-94
2021/08/01 06:49:08;;;;;;;;;;;20.60;87.60;;;18.08;91.74;99847.06;5057268;28;19924;-94
2021/08/01 06:51:42;;;;;;;;;;;20.50;87.10;;;18.12;91.75;99842.72;5054015;28;19958;-94
2021/08/01 06:54:11;;;;;;;;;;;20.50;88.00;;;18.14;90.96;99837.78;5057090;28;19998;-93
2021/08/01 06:56:38;;;;;;;;;;;20.50;86.60;;;18.14;90.77;99843.31;5048639;28;19950;-94
2021/08/01 06:59:05;;;;;;;;;;;20.40;87.40;;;18.11;91.79;99850.16;5032754;28;19924;-92
2021/08/01 07:01:33;;;;;;;;;;;20.30;88.70;;;18.14;91.28;99851.56;5032560;28;20007;-92
2021/08/01 07:04:02;;;;;;;;;;;20.20;88.20;;;18.10;90.96;99844.91;5032419;28;20361;-92
2021/08/01 07:06:29;;;;;;;;;;;20.10;88.50;;;18.12;90.66;99838.03;5032417;28;20301;-93
2021/08/01 07:08:56;;;;;;;;;;;20.10;88.80;;;18.16;90.90;99832.88;5032993;28;19927;-92
2021/08/01 07:11:28;;;;;;;;;;;20.40;87.50;;;18.23;90.84;99836.28;5036766;28;20027;-93
2021/08/01 07:13:56;;;;;;;;;;;20.60;86.80;;;18.31;92.09;99835.84;5054618;28;19950;-93
2021/08/01 07:16:25;;;;;;;;;;;20.80;87.50;;;18.32;90.74;99837.53;5056797;28;19932;-92
2021/08/01 07:18:52;;;;;;;;;;;20.70;86.40;;;18.34;89.45;99829.84;5042564;28;19929;-92
2021/08/01 07:21:19;;;;;;;;;;;20.70;85.50;;;18.38;90.20;99834.88;5043352;28;20455;-93
2021/08/01 07:23:47;;;;;;;;;;;20.70;86.20;;;18.43;92.04;99835.78;5037254;28;19925;-92
2021/08/01 07:26:17;;;;;;;;;;;20.80;87.70;;;18.44;90.22;99842.94;5036245;28;20292;-93
2021/08/01 07:28:46;;;;;;;;;;;20.90;85.20;;;18.50;90.81;99838.34;5036578;28;19974;-93
2021/08/01 07:31:13;;;;;;;;;;;21.00;86.00;;;18.56;90.00;99840.06;5036184;28;19924;-93
2021/08/01 07:33:40;;;;;;;;;;;21.10;85.10;;;18.58;90.16;99835.13;5036742;28;19927;-93
2021/08/01 07:36:09;;;;;;;;;;;21.20;85.20;;;18.68;90.98;99838.03;5035580;28;20292;-93
2021/08/01 07:38:37;;;;;;;;;;;21.30;85.80;;;18.75;91.06;99824.06;5036410;28;19924;-93
2021/08/01 07:41:04;;;;;;;;;;;21.50;85.50;;;18.82;91.48;99829.44;5053717;28;20027;-91
2021/08/01 07:43:31;;;;;;;;;;;21.50;84.90;;;18.85;89.18;99835.28;5035790;28;20435;-92
2021/08/01 07:46:00;;;;;;;;;;;21.60;83.30;;;18.89;89.38;99830.09;5034994;28;19924;-93
2021/08/01 07:48:27;;;;;;;;;;;21.60;83.70;;;18.87;88.37;99835.03;5035421;28;20404;-92
2021/08/01 07:50:54;;;;;;;;;;;21.50;82.70;;;18.84;89.12;99833.59;5035193;28;20395;-92
2021/08/01 07:53:21;;;;;;;;;;;21.40;84.20;;;18.82;88.64;99841.28;5053067;28;19931;-93
2021/08/01 07:55:49;;;;;;;;;;;21.30;84.60;;;18.83;88.15;99847.63;5053081;28;19924;-93
2021/08/01 07:58:16;;;;;;;;;;;21.10;84.80;;;18.85;88.87;99845.44;5034678;28;19933;-92
2021/08/01 08:00:43;;;;;;;;;;;21.10;85.40;;;18.84;87.33;99843.78;5034855;28;19928;-93
2021/08/01 08:03:12;;;;;;;;;;;21.10;84.10;;;18.85;87.70;99860.09;5052980;28;19925;-91
2021/08/01 08:05:39;;;;;;;;;;;21.10;84.70;;;18.82;87.01;99854.25;5052673;28;20408;-91
2021/08/01 08:08:06;;;;;;;;;;;21.00;84.60;;;18.82;87.89;99851.50;5052082;28;19991;-92
2021/08/01 08:10:33;;;;;;;;;;;20.90;85.60;;;18.75;86.65;99857.13;5035289;28;19932;-93
2021/08/01 08:13:01;;;;;;;;;;;20.90;85.10;;;18.78;86.76;99855.81;5034641;28;19931;-90
2021/08/01 08:15:28;;;;;;;;;;;20.80;85.00;;;18.78;87.42;99842.03;5052732;28;19994;-91
2021/08/01 08:17:57;;;;;;;;;;;20.80;86.00;;;18.81;87.00;99841.53;5051838;28;19921;-92
2021/08/01 08:20:28;;;;;;;;;;;20.90;85.50;;;18.84;87.15;99847.38;5052133;28;19928;-91
2021/08/01 08:22:55;;;;;;;;;;;21.10;85.20;;;18.96;88.88;99850.00;5051374;28;20407;-91
2021/08/01 08:25:25;;;;;;;;;;;21.40;84.50;;;19.06;86.55;99855.66;5052238;28;19921;-90
2021/08/01 08:27:53;;;;;;;;;;;21.60;82.90;;;18.96;82.65;99855.50;5051594;28;19932;-92
2021/08/01 08:30:20;;;;;;;;;;;21.60;80.60;;;18.89;83.81;99852.13;5034397;28;19924;-91
2021/08/01 08:32:47;;;;;;;;;;;21.40;80.90;;;18.95;84.06;99851.94;5052095;28;19925;-91
2021/08/01 08:35:15;;;;;;;;;;;21.40;82.50;;;18.94;84.34;99854.94;5034187;28;19932;-92
2021/08/01 08:37:47;;;;;;;;;;;21.30;82.40;;;18.88;81.79;99848.53;5033613;28;19921;-92
2021/08/01 08:40:15;;;;;;;;;;;21.20;81.70;;;18.92;83.04;99857.13;5033899;28;19926;-92
2021/08/01 08:42:45;;;;;;;;;;;21.10;82.00;;;18.91;83.11;99850.78;5033976;28;19936;-92
2021/08/01 08:45:15;;;;;;;;;;;21.10;82.60;;;18.95;82.30;99860.22;5033929;28;19960;-93
2021/08/01 08:47:44;;;;;;;;;;;21.20;81.90;;;18.97;83.12;99864.66;5033408;28;19924;-91
2021/08/01 08:50:14;;;;;;;;;;;21.20;82.00;;;18.97;83.27;99853.63;5036510;28;19924;-91
2021/08/01 08:52:43;;;;;;;;;;;21.30;81.40;;;19.05;83.02;99861.44;5034270;28;19921;-92
2021/08/01 08:55:13;;;;;;;;;;;21.50;80.70;;;19.09;83.12;99857.88;5052018;28;20389;-93
2021/08/01 08:57:45;;;;;;;;;;;21.60;81.00;;;19.08;81.44;99861.75;5033089;28;19947;-92
2021/08/01 09:00:14;;;;;;;;;;;21.50;79.90;;;19.07;81.87;99865.59;5051634;28;20373;-91
2021/08/01 09:02:41;;;;;;;;;;;21.40;80.70;;;19.13;83.53;99864.59;5051874;28;19931;-91
2021/08/01 09:05:10;;;;;;;;;;;21.50;81.20;;;19.23;83.09;99865.78;5050300;28;20436;-92
2021/08/01 09:07:39;;;;;;;;;;;21.70;81.60;;;19.18;82.51;99863.78;5051154;28;19920;-92
2021/08/01 09:10:07;;;;;;;;;;;21.70;80.30;;;19.18;82.71;99872.06;5050340;28;19995;-91
2021/08/01 09:12:42;;;;;;;;;;;21.60;80.30;;;19.22;83.90;99877.91;5033894;28;20503;-92
2021/08/01 09:15:11;;;;;;;;;;;21.60;81.00;;;19.29;84.65;99876.63;5051584;28;20307;-93
2021/08/01 09:17:40;;;;;;;;;;;21.70;81.50;;;19.19;82.65;99884.78;5032851;28;20096;-91
2021/08/01 09:20:19;;;;;;;;;;;21.70;80.40;;;19.18;81.59;99887.81;5050270;28;19925;-91
2021/08/01 09:23:08;;;;;;;;;;;21.60;80.20;;;19.10;80.81;99895.44;5050391;28;20042;-92
2021/08/01 09:25:37;;;;;;;;;;;21.40;78.80;;;19.10;81.58;99891.84;5033765;28;19924;-91
2021/08/01 09:28:14;;;;;;;;;;;21.30;81.20;;;19.11;80.33;99894.34;5050926;28;19920;-92
2021/08/01 09:30:47;;;;;;;;;;;21.30;80.40;;;19.22;82.50;99895.28;5033208;28;20320;-92
2021/08/01 09:33:17;;;;;;;;;;;21.40;81.10;;;19.21;80.00;99898.31;5033217;28;19931;-92
2021/08/01 09:35:45;;;;;;;;;;;21.50;79.30;;;19.19;80.17;99901.34;5033492;28;20662;-92
2021/08/01 09:38:13;;;;;;;;;;;21.40;79.90;;;19.18;80.62;99898.84;5032809;28;20015;-92
2021/08/01 09:40:41;;;;;;;;;;;21.40;80.10;;;19.17;80.04;99900.72;5050855;28;20347;-93
2021/08/01 09:43:12;;;;;;;;;;;21.50;79.90;;;19.20;79.83;99907.69;5051229;28;19960;-91
2021/08/01 09:45:40;;;;;;;;;;;21.50;79.90;;;19.16;80.08;99906.53;5033132;28;19924;-93
2021/08/01 09:48:18;;;;;;;;;;;21.50;78.80;;;19.23;81.31;99907.16;5050359;28;19924;-92
2021/08/01 09:50:59;;;;;;;;;;;21.60;79.60;;;19.31;80.51;99910.31;5050945;28;19920;-93
2021/08/01 09:53:27;;;;;;;;;;;21.60;79.00;;;19.41;82.18;99903.25;5050793;28;19924;-91
2021/08/01 09:56:21;;;;;;;;;;;21.70;80.00;;;19.46;82.32;99901.38;5050553;28;19925;-93
2021/08/01 09:58:50;;;;;;;;;;;21.80;80.60;;;19.41;78.58;99909.59;5014931;28;19925;-91
2021/08/01 10:01:18;;;;;;;;;;;21.80;78.10;;;19.45;80.96;99902.47;5032648;28;20300;-92
2021/08/01 10:03:47;;;;;;;;;;;21.80;79.60;;;19.42;80.73;99894.72;5050668;28;19931;-92
2021/08/01 10:06:15;;;;;;;;;;;21.80;78.60;;;19.46;79.95;99901.38;5032111;28;19925;-92
2021/08/01 10:08:44;;;;;;;;;;;21.90;78.90;;;19.46;77.76;99901.38;5050378;28;19932;-93
2021/08/01 10:11:16;;;;;;;;;;;21.80;77.30;;;19.49;79.09;99905.53;5049161;28;20004;-93
2021/08/01 10:13:46;;;;;;;;;;;21.80;78.20;;;19.52;81.24;99903.09;5050671;28;19949;-92
2021/08/01 10:16:18;;;;;;;;;;;21.80;78.70;;;19.55;78.87;99912.78;5031974;28;19920;-91
2021/08/01 10:18:49;;;;;;;;;;;21.80;77.80;;;19.58;79.03;99914.19;5032308;28;19925;-91
2021/08/01 10:21:25;;;;;;;;;;;21.80;78.30;;;19.60;78.94;99906.50;5049116;28;19931;-92
2021/08/01 10:24:05;;;;;;;;;;;21.80;78.50;;;19.46;75.90;99912.41;5050172;28;20416;-92
2021/08/01 10:26:49;;;;;;;;;;;21.80;77.50;;;19.49;77.85;99917.41;5048605;28;19975;-91
2021/08/01 10:29:42;;;;;;;;;;;21.80;77.90;;;19.42;75.20;99908.50;5032213;28;20448;-93
2021/08/01 10:32:21;;;;;;;;;;;21.70;76.50;;;19.47;78.38;99907.72;5032579;28;19932;-93
2021/08/01 10:37:48;;;;;;;;;;;21.70;78.50;;;19.54;78.23;99913.88;5047103;28;19948;-92
2021/08/01 10:40:22;;;;;;;;;;;21.70;77.10;;;19.60;80.09;99907.31;5050073;28;20392;-91
2021/08/01 10:42:55;;;;;;;;;;;21.70;78.00;;;19.68;78.10;99908.78;5058913;28;19924;-93
2021/08/01 10:45:44;;;;;;;;;;;21.80;78.10;;;19.69;77.37;99902.19;5069054;28;19967;-91
2021/08/01 10:48:14;;;;;;;;;;;21.90;77.50;;;19.70;76.28;99901.94;5051624;28;19924;-91
2021/08/01 10:50:43;;;;;;;;;;;21.90;77.10;;;19.70;79.51;99906.59;5068809;28;19931;-92
2021/08/01 10:53:28;;;;;;;;;;;22.00;78.00;;;19.60;74.65;99904.56;5070110;28;19933;-93
2021/08/01 10:56:29;;;;;;;;;;;22.00;75.10;;;19.73;78.41;99900.59;5069349;28;20475;-92
2021/08/01 10:58:56;;;;;;;;;;;22.00;77.30;;;19.81;77.79;99894.59;5051677;28;19947;-92
2021/08/01 11:01:23;;;;;;;;;;;22.20;76.90;;;19.77;76.41;99898.97;5052332;28;20407;-93
2021/08/01 11:04:24;;;;;;;;;;;22.10;75.90;;;19.72;75.82;99893.38;5052088;28;19924;-91
2021/08/01 11:06:51;;;;;;;;;;;22.00;76.30;;;19.66;74.46;99899.94;5067896;28;19921;-92
2021/08/01 11:09:18;;;;;;;;;;;21.90;76.10;;;19.65;75.95;99901.03;5052090;28;19964;-91
2021/08/01 11:11:49;;;;;;;;;;;21.90;76.60;;;19.63;75.63;99900.44;5051968;28;19924;-92
2021/08/01 11:14:47;;;;;;;;;;;21.90;76.60;;;19.65;76.49;99898.28;5069971;28;19928;-92
2021/08/01 11:17:14;;;;;;;;;;;21.90;76.60;;;19.68;74.88;99894.97;5067722;28;19920;-92
2021/08/01 11:19:43;;;;;;;;;;;21.90;76.10;;;19.61;75.59;99892.44;5051773;28;19924;-92
2021/08/01 11:22:35;;;;;;;;;;;21.80;76.50;;;19.61;76.95;99897.09;5069921;28;19930;-92
2021/08/01 11:25:22;;;;;;;;;;;21.70;76.50;;;19.62;76.41;99888.56;5069986;28;19931;-93
2021/08/01 11:28:21;;;;;;;;;;;21.80;76.60;;;19.65;77.45;99901.88;5068963;28;19942;-92
2021/08/01 11:31:21;;;;;;;;;;;21.80;76.90;;;19.73;77.59;99890.38;5051637;28;20007;-92
2021/08/01 11:33:50;;;;;;;;;;;22.00;76.90;;;19.72;73.78;99907.19;5018958;28;19964;-92
2021/08/01 11:36:24;;;;;;;;;;;21.90;76.00;;;19.64;74.74;99899.34;5069020;28;20478;-91
2021/08/01 11:39:06;;;;;;;;;;;21.80;75.50;;;19.68;75.91;99901.31;5069723;28;19920;-92
2021/08/01 11:41:38;;;;;;;;;;;21.90;76.50;;;19.66;75.67;99895.22;5068288;28;19931;-92
2021/08/01 11:44:15;;;;;;;;;;;22.00;76.10;;;19.67;76.15;99896.09;5051556;28;19924;-92
2021/08/01 11:47:00;;;;;;;;;;;21.90;76.60;;;19.67;75.51;99896.91;5050469;28;20444;-93
2021/08/01 11:49:29;;;;;;;;;;;21.90;76.60;;;19.70;76.82;99890.03;5051357;28;19928;-92
2021/08/01 11:51:59;;;;;;;;;;;21.90;76.60;;;19.75;75.76;99892.06;5069460;28;19931;-91
2021/08/01 11:54:28;;;;;;;;;;;22.00;76.30;;;19.67;74.05;99896.09;5051310;28;19924;-93
2021/08/01 11:56:57;;;;;;;;;;;22.00;75.30;;;19.73;74.66;99900.59;5069912;28;19924;-91
2021/08/01 11:59:24;;;;;;;;;;;22.10;75.30;;;19.81;76.13;99897.34;5072778;28;19924;-91
2021/08/01 12:01:52;;;;;;;;;;;22.20;75.50;;;19.86;74.80;99893.81;5072801;28;20007;-92
2021/08/01 12:04:20;;;;;;;;;;;22.30;75.20;;;19.87;75.21;99893.53;5054668;28;19924;-91
2021/08/01 12:06:47;;;;;;;;;;;22.40;74.50;;;19.96;75.54;99893.09;5054005;28;19960;-92
2021/08/01 12:09:20;;;;;;;;;;;22.50;74.70;;;20.03;74.66;99896.44;5054561;28;19973;-91
2021/08/01 12:11:49;;;;;;;;;;;22.50;73.90;;;19.90;69.46;99893.03;5054830;28;19925;-91
2021/08/01 12:14:17;;;;;;;;;;;22.40;71.00;;;19.89;74.71;99896.03;5054772;28;19925;-91
2021/08/01 12:16:55;;;;;;;;;;;22.30;73.80;;;19.85;72.95;99892.97;5054715;28;19935;-92
2021/08/01 12:19:24;;;;;;;;;;;22.20;73.20;;;19.88;72.65;99891.63;5054768;28;19920;-92